Flood From: 21-02-2018 18:00 Until: 22-02-2018 16:00 warning for: Flood Level: Yellow info button

Although rather usual in this region, locally or potentially dangerous phenomena are expected. (such as local winds, summer thunderstorms, rising streams or high waves) Be aware and pay attention to the latest weather updates, especially if you carry out activities exposed to weather or close to a stream or shoreline. 


Meteo18 Weather Cam more information Meteo18 Weather Cam


Thunder radar more information blitzortung!


Rain radar more information rain snow radar


Visit our other weather sites:

Template documentation
and downloads

And another site



Weather Underground History page Text

Daily Summary for May 29, 2017 Units:  Both    English   Metric
« Previous Day
Next Day »
Daily Weekly Monthly Yearly Custom
  High: Low: Average:
Temperature: TemperatureC °F /  -17.8 °C 15.7 °F /  -9.1 °C 22.4 °F /  -5.3 °C
Dew Point: DewpointC °F /  -17.8 °C 11.7 °F /  -11.3 °C 15.2 °F /  -9.3 °C
Humidity: Humidity % 40 % 66 %
Wind Speed: WindSpeedKMH mph /  0 km/h - 3.6 mph /  5.8 km/h
Wind Gust: WindSpeedGustKMH mph /  0 km/h - -
Wind:- - WSW
Pressure: PressurehPa in /  0 hPa 1014.4 in /  34347.6 hPa -
Precipitation: 0.0 in /  0 mm    
Historical Graphs
 
 
Tabular Data for May 29, 2017
Time Temperature Dew Point Pressure Wind Wind Speed Wind Gust Humidity Rainfall Rate (Hourly)
TemperatureC °F /  -17.8 °C DewpointC °F /  -17.8 °C PressurehPa in /  0 hPa Calm     Humidity % HourlyPrecipMM in /  0 mm
00:07 21.3 °F /  -5.9 °C 17.5 °F /  -8.1 °C 1015.5 in /  34384.8 hPa Calm   3.2 mph /  5.1 km/h 79 % 0.0 in /  0 mm
00:12 21.1 °F /  -6.1 °C 17.3 °F /  -8.2 °C 1015.5 in /  34384.8 hPa Calm   3.2 mph /  5.1 km/h 79 % 0.0 in /  0 mm
00:17 21.3 °F /  -5.9 °C 17.5 °F /  -8.1 °C 1015.5 in /  34384.8 hPa Calm     79 % 0.0 in /  0 mm
00:22 21.4 °F /  -5.9 °C 17.2 °F /  -8.2 °C 1015.5 in /  34384.8 hPa Calm     77 % 0.0 in /  0 mm
00:32 20.6 °F /  -6.3 °C 17.2 °F /  -8.2 °C 1015.5 in /  34384.8 hPa WNW 4.8 mph /  7.7 km/h   81 % 0.0 in /  0 mm
00:37 20.3 °F /  -6.5 °C 17.1 °F /  -8.3 °C 1015.5 in /  34384.8 hPa WNW 1.6 mph /  2.6 km/h 4.8 mph /  7.7 km/h 82 % 0.0 in /  0 mm
00:42 20.7 °F /  -6.3 °C 17.1 °F /  -8.3 °C 1015.5 in /  34384.8 hPa Calm   4.8 mph /  7.7 km/h 80 % 0.0 in /  0 mm
00:52 20.7 °F /  -6.3 °C 16.9 °F /  -8.4 °C 1015.5 in /  34384.8 hPa Calm   4.8 mph /  7.7 km/h 79 % 0.0 in /  0 mm
00:57 20.7 °F /  -6.3 °C 17.1 °F /  -8.3 °C 1015.5 in /  34384.8 hPa Calm   3.2 mph /  5.1 km/h 80 % 0.0 in /  0 mm
01:02 20.8 °F /  -6.2 °C 17.0 °F /  -8.3 °C 1015.5 in /  34384.8 hPa Calm   3.2 mph /  5.1 km/h 79 % 0.0 in /  0 mm
01:12 20.3 °F /  -6.5 °C 16.7 °F /  -8.5 °C 1015.5 in /  34384.8 hPa Calm   1.6 mph /  2.6 km/h 80 % 0.0 in /  0 mm
01:17 19.9 °F /  -6.7 °C 16.7 °F /  -8.5 °C 1015.5 in /  34384.8 hPa Calm   1.6 mph /  2.6 km/h 82 % 0.0 in /  0 mm
01:22 19.8 °F /  -6.8 °C 16.6 °F /  -8.6 °C 1015.5 in /  34384.8 hPa Calm     82 % 0.0 in /  0 mm
01:32 20.1 °F /  -6.6 °C 16.5 °F /  -8.6 °C 1015.5 in /  34384.8 hPa Calm     80 % 0.0 in /  0 mm
01:42 19.7 °F /  -6.8 °C 16.5 °F /  -8.6 °C 1015.5 in /  34384.8 hPa Calm     82 % 0.0 in /  0 mm
01:47 19.6 °F /  -6.9 °C 16.6 °F /  -8.6 °C 1015.5 in /  34384.8 hPa Calm     83 % 0.0 in /  0 mm
01:52 19.4 °F /  -7 °C 16.4 °F /  -8.7 °C 1015.5 in /  34384.8 hPa Calm     83 % 0.0 in /  0 mm
01:57 19.1 °F /  -7.2 °C 16.1 °F /  -8.8 °C 1015.5 in /  34384.8 hPa Calm     83 % 0.0 in /  0 mm
02:02 18.8 °F /  -7.3 °C 16.0 °F /  -8.9 °C 1015.5 in /  34384.8 hPa Calm     84 % 0.0 in /  0 mm
02:12 18.8 °F /  -7.3 °C 16.2 °F /  -8.8 °C 1015.5 in /  34384.8 hPa Calm     85 % 0.0 in /  0 mm
02:17 18.9 °F /  -7.3 °C 16.1 °F /  -8.8 °C 1015.5 in /  34384.8 hPa Calm     84 % 0.0 in /  0 mm
02:22 18.9 °F /  -7.3 °C 16.1 °F /  -8.8 °C 1015.5 in /  34384.8 hPa Calm     84 % 0.0 in /  0 mm
02:27 18.8 °F /  -7.3 °C 16.0 °F /  -8.9 °C 1015.5 in /  34384.8 hPa Calm     84 % 0.0 in /  0 mm
02:32 18.7 °F /  -7.4 °C 16.1 °F /  -8.8 °C 1015.1 in /  34371.3 hPa Calm     85 % 0.0 in /  0 mm
02:37 18.6 °F /  -7.4 °C 16.0 °F /  -8.9 °C 1015.1 in /  34371.3 hPa Calm     85 % 0.0 in /  0 mm
02:42 18.4 °F /  -7.6 °C 15.8 °F /  -9 °C 1015.1 in /  34371.3 hPa Calm     85 % 0.0 in /  0 mm
02:47 18.2 °F /  -7.7 °C 15.8 °F /  -9 °C 1015.1 in /  34371.3 hPa Calm     86 % 0.0 in /  0 mm
02:52 17.9 °F /  -7.8 °C 15.5 °F /  -9.2 °C 1015.1 in /  34371.3 hPa Calm     86 % 0.0 in /  0 mm
02:57 17.8 °F /  -7.9 °C 15.6 °F /  -9.1 °C 1015.1 in /  34371.3 hPa Calm     87 % 0.0 in /  0 mm
03:02 17.8 °F /  -7.9 °C 15.8 °F /  -9 °C 1015.1 in /  34371.3 hPa Calm     88 % 0.0 in /  0 mm
03:12 17.4 °F /  -8.1 °C 15.6 °F /  -9.1 °C 1015.1 in /  34371.3 hPa Calm     89 % 0.0 in /  0 mm
03:17 17.5 °F /  -8.1 °C 15.7 °F /  -9.1 °C 1015.1 in /  34371.3 hPa Calm     89 % 0.0 in /  0 mm
03:22 17.4 °F /  -8.1 °C 15.6 °F /  -9.1 °C 1015.1 in /  34371.3 hPa Calm     89 % 0.0 in /  0 mm
03:27 17.4 °F /  -8.1 °C 15.6 °F /  -9.1 °C 1015.1 in /  34371.3 hPa Calm     89 % 0.0 in /  0 mm
03:32 17.2 °F /  -8.2 °C 15.4 °F /  -9.2 °C 1015.1 in /  34371.3 hPa Calm     89 % 0.0 in /  0 mm
03:37 17.1 °F /  -8.3 °C 15.4 °F /  -9.2 °C 1015.1 in /  34371.3 hPa Calm     90 % 0.0 in /  0 mm
03:42 17.0 °F /  -8.3 °C 15.3 °F /  -9.3 °C 1015.5 in /  34384.8 hPa Calm     90 % 0.0 in /  0 mm
03:47 16.8 °F /  -8.4 °C 15.1 °F /  -9.4 °C 1015.5 in /  34384.8 hPa Calm     90 % 0.0 in /  0 mm
03:52 16.7 °F /  -8.5 °C 15.2 °F /  -9.3 °C 1015.1 in /  34371.3 hPa Calm     91 % 0.0 in /  0 mm
03:57 16.6 °F /  -8.6 °C 15.1 °F /  -9.4 °C 1015.5 in /  34384.8 hPa Calm     91 % 0.0 in /  0 mm
04:02 16.6 °F /  -8.6 °C 15.3 °F /  -9.3 °C 1015.5 in /  34384.8 hPa Calm     92 % 0.0 in /  0 mm
04:12 16.7 °F /  -8.5 °C 15.4 °F /  -9.2 °C 1015.1 in /  34371.3 hPa Calm     92 % 0.0 in /  0 mm
04:17 16.7 °F /  -8.5 °C 15.4 °F /  -9.2 °C 1015.1 in /  34371.3 hPa Calm     92 % 0.0 in /  0 mm
04:22 16.7 °F /  -8.5 °C 15.4 °F /  -9.2 °C 1015.1 in /  34371.3 hPa Calm     92 % 0.0 in /  0 mm
04:32 16.6 °F /  -8.6 °C 15.3 °F /  -9.3 °C 1015.1 in /  34371.3 hPa Calm     92 % 0.0 in /  0 mm
04:42 16.6 °F /  -8.6 °C 15.5 °F /  -9.2 °C 1015.5 in /  34384.8 hPa Calm     93 % 0.0 in /  0 mm
04:47 16.4 °F /  -8.7 °C 15.1 °F /  -9.4 °C 1015.1 in /  34371.3 hPa Calm     92 % 0.0 in /  0 mm
04:52 16.2 °F /  -8.8 °C 14.9 °F /  -9.5 °C 1015.5 in /  34384.8 hPa Calm   3.2 mph /  5.1 km/h 92 % 0.0 in /  0 mm
04:57 16.1 °F /  -8.8 °C 15.0 °F /  -9.4 °C 1015.5 in /  34384.8 hPa Calm   3.2 mph /  5.1 km/h 93 % 0.0 in /  0 mm
05:02 16.1 °F /  -8.8 °C 15.0 °F /  -9.4 °C 1015.5 in /  34384.8 hPa Calm   3.2 mph /  5.1 km/h 93 % 0.0 in /  0 mm
05:12 16.2 °F /  -8.8 °C 15.1 °F /  -9.4 °C 1015.1 in /  34371.3 hPa Calm     93 % 0.0 in /  0 mm
05:17 16.3 °F /  -8.7 °C 15.2 °F /  -9.3 °C 1015.1 in /  34371.3 hPa Calm     93 % 0.0 in /  0 mm
05:22 16.4 °F /  -8.7 °C 15.4 °F /  -9.2 °C 1015.1 in /  34371.3 hPa Calm     94 % 0.0 in /  0 mm
05:32 16.3 °F /  -8.7 °C 15.2 °F /  -9.3 °C 1014.8 in /  34361.1 hPa Calm     93 % 0.0 in /  0 mm
05:42 16.1 °F /  -8.8 °C 15.0 °F /  -9.4 °C 1014.8 in /  34361.1 hPa Calm     93 % 0.0 in /  0 mm
05:47 16.0 °F /  -8.9 °C 14.9 °F /  -9.5 °C 1014.8 in /  34361.1 hPa Calm     93 % 0.0 in /  0 mm
05:52 15.8 °F /  -9 °C 14.7 °F /  -9.6 °C 1014.8 in /  34361.1 hPa Calm     93 % 0.0 in /  0 mm
06:02 15.8 °F /  -9 °C 14.8 °F /  -9.6 °C 1014.8 in /  34361.1 hPa Calm   1.6 mph /  2.6 km/h 94 % 0.0 in /  0 mm
06:12 15.7 °F /  -9.1 °C 14.7 °F /  -9.6 °C 1014.8 in /  34361.1 hPa WNW 1.6 mph /  2.6 km/h 1.6 mph /  2.6 km/h 94 % 0.0 in /  0 mm
06:17 15.7 °F /  -9.1 °C 14.7 °F /  -9.6 °C 1014.8 in /  34361.1 hPa WNW 1.6 mph /  2.6 km/h 1.6 mph /  2.6 km/h 94 % 0.0 in /  0 mm
06:22 15.8 °F /  -9 °C 15.0 °F /  -9.4 °C 1015.1 in /  34371.3 hPa WNW 1.6 mph /  2.6 km/h 3.2 mph /  5.1 km/h 95 % 0.0 in /  0 mm
06:37 15.9 °F /  -8.9 °C 15.1 °F /  -9.4 °C 1015.1 in /  34371.3 hPa Calm   3.2 mph /  5.1 km/h 95 % 0.0 in /  0 mm
06:42 16.2 °F /  -8.8 °C 15.4 °F /  -9.2 °C 1015.1 in /  34371.3 hPa Calm   3.2 mph /  5.1 km/h 95 % 0.0 in /  0 mm
06:47 16.6 °F /  -8.6 °C 15.8 °F /  -9 °C 1015.1 in /  34371.3 hPa Calm   3.2 mph /  5.1 km/h 95 % 0.0 in /  0 mm
06:52 16.5 °F /  -8.6 °C 15.4 °F /  -9.2 °C 1015.1 in /  34371.3 hPa Calm     93 % 0.0 in /  0 mm
07:02 16.9 °F /  -8.4 °C 15.9 °F /  -8.9 °C 1015.1 in /  34371.3 hPa Calm     94 % 0.0 in /  0 mm
07:07 17.2 °F /  -8.2 °C 16.1 °F /  -8.8 °C 1015.1 in /  34371.3 hPa Calm     93 % 0.0 in /  0 mm
07:12 17.6 °F /  -8 °C 16.5 °F /  -8.6 °C 1015.1 in /  34371.3 hPa Calm     93 % 0.0 in /  0 mm
07:17 17.8 °F /  -7.9 °C 16.1 °F /  -8.8 °C 1015.1 in /  34371.3 hPa Calm     90 % 0.0 in /  0 mm
07:22 17.8 °F /  -7.9 °C 16.0 °F /  -8.9 °C 1015.1 in /  34371.3 hPa Calm     89 % 0.0 in /  0 mm
07:32 18.4 °F /  -7.6 °C 15.6 °F /  -9.1 °C 1015.5 in /  34384.8 hPa Calm     84 % 0.0 in /  0 mm
07:37 18.9 °F /  -7.3 °C 15.6 °F /  -9.1 °C 1015.5 in /  34384.8 hPa Calm     81 % 0.0 in /  0 mm
07:42 19.0 °F /  -7.2 °C 16.0 °F /  -8.9 °C 1015.5 in /  34384.8 hPa Calm     83 % 0.0 in /  0 mm
07:47 19.1 °F /  -7.2 °C 15.8 °F /  -9 °C 1015.5 in /  34384.8 hPa Calm     81 % 0.0 in /  0 mm
07:52 19.3 °F /  -7.1 °C 15.0 °F /  -9.4 °C 1015.5 in /  34384.8 hPa Calm     76 % 0.0 in /  0 mm
08:02 19.6 °F /  -6.9 °C 14.4 °F /  -9.8 °C 1015.5 in /  34384.8 hPa Calm   3.2 mph /  5.1 km/h 72 % 0.0 in /  0 mm
08:12 19.9 °F /  -6.7 °C 14.5 °F /  -9.7 °C 1015.5 in /  34384.8 hPa Calm   4.8 mph /  7.7 km/h 71 % 0.0 in /  0 mm
08:17 20.4 °F /  -6.4 °C 15.0 °F /  -9.4 °C 1015.5 in /  34384.8 hPa Calm   4.8 mph /  7.7 km/h 71 % 0.0 in /  0 mm
08:22 20.8 °F /  -6.2 °C 15.1 °F /  -9.4 °C 1015.1 in /  34371.3 hPa Calm   4.8 mph /  7.7 km/h 70 % 0.0 in /  0 mm
08:27 21.1 °F /  -6.1 °C 15.4 °F /  -9.2 °C 1015.5 in /  34384.8 hPa Calm   4.8 mph /  7.7 km/h 70 % 0.0 in /  0 mm
08:32 21.1 °F /  -6.1 °C 15.2 °F /  -9.3 °C 1015.5 in /  34384.8 hPa Calm   4.8 mph /  7.7 km/h 69 % 0.0 in /  0 mm
08:37 21.2 °F /  -6 °C 15.1 °F /  -9.4 °C 1015.5 in /  34384.8 hPa Calm   4.8 mph /  7.7 km/h 68 % 0.0 in /  0 mm
08:42 21.2 °F /  -6 °C 15.1 °F /  -9.4 °C 1015.5 in /  34384.8 hPa Calm   6.4 mph /  10.3 km/h 68 % 0.0 in /  0 mm
08:52 21.3 °F /  -5.9 °C 14.7 °F /  -9.6 °C 1015.5 in /  34384.8 hPa SW 1.6 mph /  2.6 km/h 6.4 mph /  10.3 km/h 66 % 0.0 in /  0 mm
08:57 21.3 °F /  -5.9 °C 14.5 °F /  -9.7 °C 1015.5 in /  34384.8 hPa SSW 3.2 mph /  5.1 km/h 6.4 mph /  10.3 km/h 65 % 0.0 in /  0 mm
09:02 21.2 °F /  -6 °C 14.4 °F /  -9.8 °C 1015.5 in /  34384.8 hPa SSE 3.2 mph /  5.1 km/h 8.0 mph /  12.9 km/h 65 % 0.0 in /  0 mm
09:12 21.5 °F /  -5.8 °C 14.6 °F /  -9.7 °C 1015.5 in /  34384.8 hPa SSE 3.2 mph /  5.1 km/h 9.7 mph /  15.6 km/h 65 % 0.0 in /  0 mm
09:22 21.8 °F /  -5.7 °C 14.9 °F /  -9.5 °C 1015.5 in /  34384.8 hPa ESE 3.2 mph /  5.1 km/h 6.4 mph /  10.3 km/h 65 % 0.0 in /  0 mm
09:32 22.1 °F /  -5.5 °C 14.7 °F /  -9.6 °C 1015.5 in /  34384.8 hPa Calm   9.7 mph /  15.6 km/h 63 % 0.0 in /  0 mm
09:42 22.6 °F /  -5.2 °C 15.4 °F /  -9.2 °C 1015.5 in /  34384.8 hPa South 1.6 mph /  2.6 km/h 8.0 mph /  12.9 km/h 64 % 0.0 in /  0 mm
09:52 23.0 °F /  -5 °C 15.6 °F /  -9.1 °C 1015.5 in /  34384.8 hPa ESE 4.8 mph /  7.7 km/h 8.0 mph /  12.9 km/h 63 % 0.0 in /  0 mm
10:02 23.4 °F /  -4.8 °C 16.2 °F /  -8.8 °C 1015.5 in /  34384.8 hPa Calm   6.4 mph /  10.3 km/h 64 % 0.0 in /  0 mm
10:12 23.8 °F /  -4.6 °C 15.3 °F /  -9.3 °C 1015.5 in /  34384.8 hPa SSW 3.2 mph /  5.1 km/h 6.4 mph /  10.3 km/h 59 % 0.0 in /  0 mm
10:17 23.7 °F /  -4.6 °C 14.9 °F /  -9.5 °C 1015.5 in /  34384.8 hPa Calm   6.4 mph /  10.3 km/h 58 % 0.0 in /  0 mm
10:22 24.2 °F /  -4.3 °C 15.4 °F /  -9.2 °C 1015.5 in /  34384.8 hPa SSE 3.2 mph /  5.1 km/h 8.0 mph /  12.9 km/h 58 % 0.0 in /  0 mm
10:32 24.3 °F /  -4.3 °C 15.8 °F /  -9 °C 1015.1 in /  34371.3 hPa SSW 1.6 mph /  2.6 km/h 9.7 mph /  15.6 km/h 59 % 0.0 in /  0 mm
10:42 24.7 °F /  -4.1 °C 15.9 °F /  -8.9 °C 1015.1 in /  34371.3 hPa SSW 3.2 mph /  5.1 km/h 11.3 mph /  18.2 km/h 58 % 0.0 in /  0 mm
10:47 25.1 °F /  -3.8 °C 16.3 °F /  -8.7 °C 1015.1 in /  34371.3 hPa SE 3.2 mph /  5.1 km/h 11.3 mph /  18.2 km/h 58 % 0.0 in /  0 mm
10:52 25.3 °F /  -3.7 °C 15.3 °F /  -9.3 °C 1015.1 in /  34371.3 hPa SSW 9.7 mph /  15.6 km/h 11.3 mph /  18.2 km/h 54 % 0.0 in /  0 mm
10:57 25.5 °F /  -3.6 °C 15.8 °F /  -9 °C 1015.1 in /  34371.3 hPa SE 3.2 mph /  5.1 km/h 11.3 mph /  18.2 km/h 55 % 0.0 in /  0 mm
11:02 25.7 °F /  -3.5 °C 15.1 °F /  -9.4 °C 1015.1 in /  34371.3 hPa SW 6.4 mph /  10.3 km/h 11.3 mph /  18.2 km/h 52 % 0.0 in /  0 mm
11:12 25.4 °F /  -3.7 °C 13.9 °F /  -10.1 °C 1015.1 in /  34371.3 hPa SSW 6.4 mph /  10.3 km/h 14.5 mph /  23.3 km/h 49 % 0.0 in /  0 mm
11:22 25.5 °F /  -3.6 °C 13.7 °F /  -10.2 °C 1015.1 in /  34371.3 hPa SSW 3.2 mph /  5.1 km/h 16.1 mph /  25.9 km/h 48 % 0.0 in /  0 mm
11:27 25.6 °F /  -3.6 °C 13.8 °F /  -10.1 °C 1015.1 in /  34371.3 hPa SW 6.4 mph /  10.3 km/h 16.1 mph /  25.9 km/h 48 % 0.0 in /  0 mm
11:32 25.9 °F /  -3.4 °C 13.4 °F /  -10.3 °C 1015.1 in /  34371.3 hPa SW 11.3 mph /  18.2 km/h 14.5 mph /  23.3 km/h 46 % 0.0 in /  0 mm
11:42 26.1 °F /  -3.3 °C 12.9 °F /  -10.6 °C 1015.1 in /  34371.3 hPa SW 14.5 mph /  23.3 km/h 16.1 mph /  25.9 km/h 44 % 0.0 in /  0 mm
11:52 26.0 °F /  -3.3 °C 11.7 °F /  -11.3 °C 1015.1 in /  34371.3 hPa WSW 9.7 mph /  15.6 km/h 19.3 mph /  31.1 km/h 41 % 0.0 in /  0 mm
11:57 25.9 °F /  -3.4 °C 12.0 °F /  -11.1 °C 1015.1 in /  34371.3 hPa West 9.7 mph /  15.6 km/h 19.3 mph /  31.1 km/h 42 % 0.0 in /  0 mm
12:02 26.1 °F /  -3.3 °C 13.2 °F /  -10.4 °C 1015.1 in /  34371.3 hPa West 11.3 mph /  18.2 km/h 17.7 mph /  28.5 km/h 45 % 0.0 in /  0 mm
12:07 26.1 °F /  -3.3 °C 12.9 °F /  -10.6 °C 1015.1 in /  34371.3 hPa SSW 4.8 mph /  7.7 km/h 17.7 mph /  28.5 km/h 44 % 0.0 in /  0 mm
12:12 26.3 °F /  -3.2 °C 13.8 °F /  -10.1 °C 1015.1 in /  34371.3 hPa West 8.0 mph /  12.9 km/h 16.1 mph /  25.9 km/h 46 % 0.0 in /  0 mm
12:17 26.2 °F /  -3.2 °C 13.0 °F /  -10.6 °C 1015.5 in /  34384.8 hPa SW 11.3 mph /  18.2 km/h 16.1 mph /  25.9 km/h 44 % 0.0 in /  0 mm
12:27 26.2 °F /  -3.2 °C 13.0 °F /  -10.6 °C 1015.5 in /  34384.8 hPa West 12.9 mph /  20.8 km/h 19.3 mph /  31.1 km/h 44 % 0.0 in /  0 mm
12:32 26.2 °F /  -3.2 °C 12.6 °F /  -10.8 °C 1015.5 in /  34384.8 hPa West 12.9 mph /  20.8 km/h 19.3 mph /  31.1 km/h 43 % 0.0 in /  0 mm
12:37 26.1 °F /  -3.3 °C 12.2 °F /  -11 °C 1015.5 in /  34384.8 hPa SW 6.4 mph /  10.3 km/h 20.9 mph /  33.6 km/h 42 % 0.0 in /  0 mm
12:42 26.3 °F /  -3.2 °C 13.1 °F /  -10.5 °C 1015.5 in /  34384.8 hPa WNW 9.7 mph /  15.6 km/h 20.9 mph /  33.6 km/h 44 % 0.0 in /  0 mm
12:47 26.5 °F /  -3.1 °C 13.6 °F /  -10.2 °C 1015.1 in /  34371.3 hPa West 3.2 mph /  5.1 km/h 20.9 mph /  33.6 km/h 45 % 0.0 in /  0 mm
12:52 26.5 °F /  -3.1 °C 13.3 °F /  -10.4 °C 1015.5 in /  34384.8 hPa WNW 4.8 mph /  7.7 km/h 19.3 mph /  31.1 km/h 44 % 0.0 in /  0 mm
13:02 26.4 °F /  -3.1 °C 12.5 °F /  -10.8 °C 1015.5 in /  34384.8 hPa SW 11.3 mph /  18.2 km/h 19.3 mph /  31.1 km/h 42 % 0.0 in /  0 mm
13:07 26.6 °F /  -3 °C 12.6 °F /  -10.8 °C 1015.5 in /  34384.8 hPa SW 6.4 mph /  10.3 km/h 19.3 mph /  31.1 km/h 42 % 0.0 in /  0 mm
13:17 26.4 °F /  -3.1 °C 12.5 °F /  -10.8 °C 1015.5 in /  34384.8 hPa WSW 11.3 mph /  18.2 km/h 22.5 mph /  36.2 km/h 42 % 0.0 in /  0 mm
13:22 26.3 °F /  -3.2 °C 13.4 °F /  -10.3 °C 1015.5 in /  34384.8 hPa West 6.4 mph /  10.3 km/h 22.5 mph /  36.2 km/h 45 % 0.0 in /  0 mm
13:27 26.2 °F /  -3.2 °C 12.6 °F /  -10.8 °C 1015.5 in /  34384.8 hPa West 4.8 mph /  7.7 km/h 22.5 mph /  36.2 km/h 43 % 0.0 in /  0 mm
13:32 26.2 °F /  -3.2 °C 13.0 °F /  -10.6 °C 1015.5 in /  34384.8 hPa WSW 6.4 mph /  10.3 km/h 16.1 mph /  25.9 km/h 44 % 0.0 in /  0 mm
13:37 26.1 °F /  -3.3 °C 12.9 °F /  -10.6 °C 1015.5 in /  34384.8 hPa WNW 9.7 mph /  15.6 km/h 16.1 mph /  25.9 km/h 44 % 0.0 in /  0 mm
13:42 26.2 °F /  -3.2 °C 13.3 °F /  -10.4 °C 1015.5 in /  34384.8 hPa WNW 6.4 mph /  10.3 km/h 16.1 mph /  25.9 km/h 45 % 0.0 in /  0 mm
13:52 26.3 °F /  -3.2 °C 13.8 °F /  -10.1 °C 1015.5 in /  34384.8 hPa WNW 3.2 mph /  5.1 km/h 17.7 mph /  28.5 km/h 46 % 0.0 in /  0 mm
13:57 26.6 °F /  -3 °C 14.0 °F /  -10 °C 1015.5 in /  34384.8 hPa West 6.4 mph /  10.3 km/h 17.7 mph /  28.5 km/h 46 % 0.0 in /  0 mm
14:02 26.7 °F /  -2.9 °C 14.5 °F /  -9.7 °C 1015.1 in /  34371.3 hPa WNW 9.7 mph /  15.6 km/h 17.7 mph /  28.5 km/h 47 % 0.0 in /  0 mm
14:12 27.1 °F /  -2.7 °C 13.4 °F /  -10.3 °C 1015.1 in /  34371.3 hPa West 8.0 mph /  12.9 km/h 17.7 mph /  28.5 km/h 43 % 0.0 in /  0 mm
14:17 27.3 °F /  -2.6 °C 13.6 °F /  -10.2 °C 1015.1 in /  34371.3 hPa South 6.4 mph /  10.3 km/h 17.7 mph /  28.5 km/h 43 % 0.0 in /  0 mm
14:22 27.3 °F /  -2.6 °C 13.3 °F /  -10.4 °C 1015.1 in /  34371.3 hPa SE 1.6 mph /  2.6 km/h 17.7 mph /  28.5 km/h 42 % 0.0 in /  0 mm
14:32 27.6 °F /  -2.4 °C 13.9 °F /  -10.1 °C 1015.1 in /  34371.3 hPa WNW 1.6 mph /  2.6 km/h 11.3 mph /  18.2 km/h 43 % 0.0 in /  0 mm
14:37 27.7 °F /  -2.4 °C 14.3 °F /  -9.8 °C 1015.1 in /  34371.3 hPa Calm   11.3 mph /  18.2 km/h 44 % 0.0 in /  0 mm
14:42 28.1 °F /  -2.2 °C 14.3 °F /  -9.8 °C 1015.1 in /  34371.3 hPa ESE 3.2 mph /  5.1 km/h 11.3 mph /  18.2 km/h 43 % 0.0 in /  0 mm
14:47 28.2 °F /  -2.1 °C 14.8 °F /  -9.6 °C 1015.1 in /  34371.3 hPa WNW 3.2 mph /  5.1 km/h 11.3 mph /  18.2 km/h 44 % 0.0 in /  0 mm
14:52 28.2 °F /  -2.1 °C 14.4 °F /  -9.8 °C 1015.1 in /  34371.3 hPa SW 1.6 mph /  2.6 km/h 11.3 mph /  18.2 km/h 43 % 0.0 in /  0 mm
14:57 28.4 °F /  -2 °C 14.2 °F /  -9.9 °C 1015.1 in /  34371.3 hPa SSW 3.2 mph /  5.1 km/h 11.3 mph /  18.2 km/h 42 % 0.0 in /  0 mm
15:02 28.1 °F /  -2.2 °C 13.2 °F /  -10.4 °C 1015.1 in /  34371.3 hPa SW 11.3 mph /  18.2 km/h 11.3 mph /  18.2 km/h 40 % 0.0 in /  0 mm
15:12 27.8 °F /  -2.3 °C 14.4 °F /  -9.8 °C 1015.1 in /  34371.3 hPa SW 6.4 mph /  10.3 km/h 20.9 mph /  33.6 km/h 44 % 0.0 in /  0 mm
15:17 27.9 °F /  -2.3 °C 15.5 °F /  -9.2 °C 1015.1 in /  34371.3 hPa SW 6.4 mph /  10.3 km/h 20.9 mph /  33.6 km/h 47 % 0.0 in /  0 mm
15:22 28.1 °F /  -2.2 °C 14.7 °F /  -9.6 °C 1015.1 in /  34371.3 hPa WSW 14.5 mph /  23.3 km/h 20.9 mph /  33.6 km/h 44 % 0.0 in /  0 mm
15:32 27.6 °F /  -2.4 °C 14.9 °F /  -9.5 °C 1015.1 in /  34371.3 hPa West 3.2 mph /  5.1 km/h 20.9 mph /  33.6 km/h 46 % 0.0 in /  0 mm
15:37 27.7 °F /  -2.4 °C 14.7 °F /  -9.6 °C 1015.1 in /  34371.3 hPa SSW 6.4 mph /  10.3 km/h 20.9 mph /  33.6 km/h 45 % 0.0 in /  0 mm
15:47 27.8 °F /  -2.3 °C 15.1 °F /  -9.4 °C 1015.1 in /  34371.3 hPa SW 12.9 mph /  20.8 km/h 19.3 mph /  31.1 km/h 46 % 0.0 in /  0 mm
15:52 27.4 °F /  -2.6 °C 14.8 °F /  -9.6 °C 1015.1 in /  34371.3 hPa SSW 6.4 mph /  10.3 km/h 19.3 mph /  31.1 km/h 46 % 0.0 in /  0 mm
15:57 27.6 °F /  -2.4 °C 14.9 °F /  -9.5 °C 1015.1 in /  34371.3 hPa SSW 6.4 mph /  10.3 km/h 19.3 mph /  31.1 km/h 46 % 0.0 in /  0 mm
16:02 27.7 °F /  -2.4 °C 15.7 °F /  -9.1 °C 1015.1 in /  34371.3 hPa West 8.0 mph /  12.9 km/h 19.3 mph /  31.1 km/h 48 % 0.0 in /  0 mm
16:07 28.0 °F /  -2.2 °C 15.3 °F /  -9.3 °C 1015.1 in /  34371.3 hPa South 11.3 mph /  18.2 km/h 14.5 mph /  23.3 km/h 46 % 0.0 in /  0 mm
16:12 27.8 °F /  -2.3 °C 14.8 °F /  -9.6 °C 1015.1 in /  34371.3 hPa SW 4.8 mph /  7.7 km/h 14.5 mph /  23.3 km/h 45 % 0.0 in /  0 mm
16:17 27.8 °F /  -2.3 °C 15.1 °F /  -9.4 °C 1015.1 in /  34371.3 hPa WSW 9.7 mph /  15.6 km/h 20.9 mph /  33.6 km/h 46 % 0.0 in /  0 mm
16:22 28.3 °F /  -2.1 °C 15.2 °F /  -9.3 °C 1015.1 in /  34371.3 hPa West 8.0 mph /  12.9 km/h 20.9 mph /  33.6 km/h 45 % 0.0 in /  0 mm
16:27 27.9 °F /  -2.3 °C 15.5 °F /  -9.2 °C 1014.8 in /  34361.1 hPa SW 16.1 mph /  25.9 km/h 17.7 mph /  28.5 km/h 47 % 0.0 in /  0 mm
16:32 27.9 °F /  -2.3 °C 15.5 °F /  -9.2 °C 1014.8 in /  34361.1 hPa WSW 9.7 mph /  15.6 km/h 17.7 mph /  28.5 km/h 47 % 0.0 in /  0 mm
16:37 27.9 °F /  -2.3 °C 15.5 °F /  -9.2 °C 1014.8 in /  34361.1 hPa SW 4.8 mph /  7.7 km/h 17.7 mph /  28.5 km/h 47 % 0.0 in /  0 mm
16:42 27.7 °F /  -2.4 °C 16.9 °F /  -8.4 °C 1014.8 in /  34361.1 hPa WSW 11.3 mph /  18.2 km/h 17.7 mph /  28.5 km/h 52 % 0.0 in /  0 mm
16:47 27.9 °F /  -2.3 °C 17.7 °F /  -7.9 °C 1014.8 in /  34361.1 hPa WNW 4.8 mph /  7.7 km/h 16.1 mph /  25.9 km/h 54 % 0.0 in /  0 mm
16:52 27.8 °F /  -2.3 °C 17.3 °F /  -8.2 °C 1014.8 in /  34361.1 hPa West 6.4 mph /  10.3 km/h 19.3 mph /  31.1 km/h 53 % 0.0 in /  0 mm
17:02 27.3 °F /  -2.6 °C 16.9 °F /  -8.4 °C 1014.8 in /  34361.1 hPa West 4.8 mph /  7.7 km/h 19.3 mph /  31.1 km/h 53 % 0.0 in /  0 mm
17:12 27.2 °F /  -2.7 °C 16.8 °F /  -8.4 °C 1014.8 in /  34361.1 hPa WNW 6.4 mph /  10.3 km/h 17.7 mph /  28.5 km/h 53 % 0.0 in /  0 mm
17:17 27.3 °F /  -2.6 °C 16.3 °F /  -8.7 °C 1014.8 in /  34361.1 hPa West 6.4 mph /  10.3 km/h 16.1 mph /  25.9 km/h 51 % 0.0 in /  0 mm
17:22 27.5 °F /  -2.5 °C 17.7 °F /  -7.9 °C 1014.8 in /  34361.1 hPa WSW 9.7 mph /  15.6 km/h 16.1 mph /  25.9 km/h 55 % 0.0 in /  0 mm
17:27 27.6 °F /  -2.4 °C 15.9 °F /  -8.9 °C 1014.8 in /  34361.1 hPa WNW 6.4 mph /  10.3 km/h 16.1 mph /  25.9 km/h 49 % 0.0 in /  0 mm
17:32 27.6 °F /  -2.4 °C 13.5 °F /  -10.3 °C 1014.8 in /  34361.1 hPa SW 9.7 mph /  15.6 km/h 12.9 mph /  20.8 km/h 42 % 0.0 in /  0 mm
17:42 27.8 °F /  -2.3 °C 13.7 °F /  -10.2 °C 1014.8 in /  34361.1 hPa NW 1.6 mph /  2.6 km/h 16.1 mph /  25.9 km/h 42 % 0.0 in /  0 mm
17:47 27.9 °F /  -2.3 °C 13.4 °F /  -10.3 °C 1014.4 in /  34347.6 hPa WNW 3.2 mph /  5.1 km/h 16.1 mph /  25.9 km/h 41 % 0.0 in /  0 mm
17:52 27.9 °F /  -2.3 °C 15.5 °F /  -9.2 °C 1014.4 in /  34347.6 hPa Calm   12.9 mph /  20.8 km/h 47 % 0.0 in /  0 mm
17:57 27.8 °F /  -2.3 °C 16.1 °F /  -8.8 °C 1014.4 in /  34347.6 hPa WSW 3.2 mph /  5.1 km/h 9.7 mph /  15.6 km/h 49 % 0.0 in /  0 mm
18:02 27.9 °F /  -2.3 °C 15.5 °F /  -9.2 °C 1014.4 in /  34347.6 hPa SW 3.2 mph /  5.1 km/h 9.7 mph /  15.6 km/h 47 % 0.0 in /  0 mm
18:07 27.7 °F /  -2.4 °C 14.3 °F /  -9.8 °C 1014.4 in /  34347.6 hPa SSW 4.8 mph /  7.7 km/h 9.7 mph /  15.6 km/h 44 % 0.0 in /  0 mm
18:12 27.8 °F /  -2.3 °C 14.4 °F /  -9.8 °C 1014.4 in /  34347.6 hPa West 4.8 mph /  7.7 km/h 9.7 mph /  15.6 km/h 44 % 0.0 in /  0 mm
18:17 27.8 °F /  -2.3 °C 15.5 °F /  -9.2 °C 1014.4 in /  34347.6 hPa WNW 1.6 mph /  2.6 km/h 9.7 mph /  15.6 km/h 47 % 0.0 in /  0 mm
18:22 27.7 °F /  -2.4 °C 14.7 °F /  -9.6 °C 1014.4 in /  34347.6 hPa SW 8.0 mph /  12.9 km/h 9.7 mph /  15.6 km/h 45 % 0.0 in /  0 mm
18:32 27.4 °F /  -2.6 °C 15.7 °F /  -9.1 °C 1014.4 in /  34347.6 hPa WSW 11.3 mph /  18.2 km/h 11.3 mph /  18.2 km/h 49 % 0.0 in /  0 mm
18:37 27.2 °F /  -2.7 °C 16.2 °F /  -8.8 °C 1014.4 in /  34347.6 hPa SW 3.2 mph /  5.1 km/h 14.5 mph /  23.3 km/h 51 % 0.0 in /  0 mm
18:42 27.2 °F /  -2.7 °C 16.8 °F /  -8.4 °C 1014.4 in /  34347.6 hPa SW 6.4 mph /  10.3 km/h 14.5 mph /  23.3 km/h 53 % 0.0 in /  0 mm
18:52 27.0 °F /  -2.8 °C 16.6 °F /  -8.6 °C 1014.8 in /  34361.1 hPa WSW 1.6 mph /  2.6 km/h 12.9 mph /  20.8 km/h 53 % 0.0 in /  0 mm
18:57 27.1 °F /  -2.7 °C 17.0 °F /  -8.3 °C 1014.4 in /  34347.6 hPa WSW 11.3 mph /  18.2 km/h 11.3 mph /  18.2 km/h 54 % 0.0 in /  0 mm
19:02 26.9 °F /  -2.8 °C 16.8 °F /  -8.4 °C 1014.4 in /  34347.6 hPa West 4.8 mph /  7.7 km/h 11.3 mph /  18.2 km/h 54 % 0.0 in /  0 mm
19:12 26.4 °F /  -3.1 °C 16.9 °F /  -8.4 °C 1014.4 in /  34347.6 hPa West 6.4 mph /  10.3 km/h 11.3 mph /  18.2 km/h 56 % 0.0 in /  0 mm
19:17 26.2 °F /  -3.2 °C 17.0 °F /  -8.3 °C 1014.4 in /  34347.6 hPa West 6.4 mph /  10.3 km/h 12.9 mph /  20.8 km/h 57 % 0.0 in /  0 mm
19:22 26.1 °F /  -3.3 °C 17.2 °F /  -8.2 °C 1014.4 in /  34347.6 hPa WNW 12.9 mph /  20.8 km/h 12.9 mph /  20.8 km/h 58 % 0.0 in /  0 mm
19:32 25.1 °F /  -3.8 °C 17.6 °F /  -8 °C 1014.4 in /  34347.6 hPa West 17.7 mph /  28.5 km/h 17.7 mph /  28.5 km/h 63 % 0.0 in /  0 mm
19:37 24.4 °F /  -4.2 °C 17.1 °F /  -8.3 °C 1014.4 in /  34347.6 hPa WNW 6.4 mph /  10.3 km/h 20.9 mph /  33.6 km/h 64 % 0.0 in /  0 mm
19:42 24.0 °F /  -4.4 °C 17.0 °F /  -8.3 °C 1014.8 in /  34361.1 hPa WNW 8.0 mph /  12.9 km/h 27.4 mph /  44.1 km/h 65 % 0.0 in /  0 mm
19:52 23.7 °F /  -4.6 °C 17.2 °F /  -8.2 °C 1014.8 in /  34361.1 hPa WNW 1.6 mph /  2.6 km/h 27.4 mph /  44.1 km/h 67 % 0.0 in /  0 mm
19:57 23.6 °F /  -4.7 °C 17.1 °F /  -8.3 °C 1014.8 in /  34361.1 hPa WNW 4.8 mph /  7.7 km/h 14.5 mph /  23.3 km/h 67 % 0.0 in /  0 mm
20:02 23.4 °F /  -4.8 °C 16.9 °F /  -8.4 °C 1014.8 in /  34361.1 hPa WNW 3.2 mph /  5.1 km/h 14.5 mph /  23.3 km/h 67 % 0.0 in /  0 mm
20:12 23.2 °F /  -4.9 °C 16.7 °F /  -8.5 °C 1014.8 in /  34361.1 hPa WNW 3.2 mph /  5.1 km/h 14.5 mph /  23.3 km/h 67 % 0.0 in /  0 mm
20:17 23.2 °F /  -4.9 °C 16.7 °F /  -8.5 °C 1015.1 in /  34371.3 hPa WNW 4.8 mph /  7.7 km/h 14.5 mph /  23.3 km/h 67 % 0.0 in /  0 mm
20:22 23.1 °F /  -4.9 °C 16.9 °F /  -8.4 °C 1015.1 in /  34371.3 hPa West 3.2 mph /  5.1 km/h 11.3 mph /  18.2 km/h 68 % 0.0 in /  0 mm
20:27 22.9 °F /  -5.1 °C 16.7 °F /  -8.5 °C 1015.1 in /  34371.3 hPa West 1.6 mph /  2.6 km/h 12.9 mph /  20.8 km/h 68 % 0.0 in /  0 mm
20:32 22.9 °F /  -5.1 °C 16.7 °F /  -8.5 °C 1015.1 in /  34371.3 hPa WNW 1.6 mph /  2.6 km/h 12.9 mph /  20.8 km/h 68 % 0.0 in /  0 mm
20:42 22.8 °F /  -5.1 °C 16.6 °F /  -8.6 °C 1015.1 in /  34371.3 hPa WNW 11.3 mph /  18.2 km/h 12.9 mph /  20.8 km/h 68 % 0.0 in /  0 mm
20:47 22.7 °F /  -5.2 °C 16.7 °F /  -8.5 °C 1015.1 in /  34371.3 hPa WNW 8.0 mph /  12.9 km/h 11.3 mph /  18.2 km/h 69 % 0.0 in /  0 mm
20:52 22.6 °F /  -5.2 °C 16.8 °F /  -8.4 °C 1015.1 in /  34371.3 hPa WNW 3.2 mph /  5.1 km/h 14.5 mph /  23.3 km/h 70 % 0.0 in /  0 mm
20:57 22.3 °F /  -5.4 °C 16.3 °F /  -8.7 °C 1015.1 in /  34371.3 hPa NW 9.7 mph /  15.6 km/h 14.5 mph /  23.3 km/h 69 % 0.0 in /  0 mm
21:02 22.2 °F /  -5.4 °C 16.0 °F /  -8.9 °C 1015.5 in /  34384.8 hPa WNW 11.3 mph /  18.2 km/h 17.7 mph /  28.5 km/h 68 % 0.0 in /  0 mm
21:12 21.8 °F /  -5.7 °C 15.6 °F /  -9.1 °C 1015.5 in /  34384.8 hPa WNW 1.6 mph /  2.6 km/h 17.7 mph /  28.5 km/h 68 % 0.0 in /  0 mm
21:17 21.7 °F /  -5.7 °C 15.5 °F /  -9.2 °C 1015.5 in /  34384.8 hPa WNW 8.0 mph /  12.9 km/h 17.7 mph /  28.5 km/h 68 % 0.0 in /  0 mm
21:22 21.6 °F /  -5.8 °C 15.7 °F /  -9.1 °C 1015.5 in /  34384.8 hPa West 3.2 mph /  5.1 km/h 14.5 mph /  23.3 km/h 69 % 0.0 in /  0 mm
21:32 21.3 °F /  -5.9 °C 15.4 °F /  -9.2 °C 1015.5 in /  34384.8 hPa WNW 8.0 mph /  12.9 km/h 11.3 mph /  18.2 km/h 69 % 0.0 in /  0 mm
21:42 21.1 °F /  -6.1 °C 15.2 °F /  -9.3 °C 1015.8 in /  34395 hPa WNW 6.4 mph /  10.3 km/h 11.3 mph /  18.2 km/h 69 % 0.0 in /  0 mm
21:47 21.0 °F /  -6.1 °C 15.1 °F /  -9.4 °C 1015.8 in /  34395 hPa WNW 6.4 mph /  10.3 km/h 11.3 mph /  18.2 km/h 69 % 0.0 in /  0 mm
21:52 20.9 °F /  -6.2 °C 15.0 °F /  -9.4 °C 1016.1 in /  34405.1 hPa WNW 9.7 mph /  15.6 km/h 11.3 mph /  18.2 km/h 69 % 0.0 in /  0 mm
21:57 20.8 °F /  -6.2 °C 14.7 °F /  -9.6 °C 1016.1 in /  34405.1 hPa West 3.2 mph /  5.1 km/h 9.7 mph /  15.6 km/h 68 % 0.0 in /  0 mm
22:02 20.7 °F /  -6.3 °C 14.6 °F /  -9.7 °C 1016.1 in /  34405.1 hPa WNW 4.8 mph /  7.7 km/h 12.9 mph /  20.8 km/h 68 % 0.0 in /  0 mm
22:07 20.7 °F /  -6.3 °C 14.4 °F /  -9.8 °C 1016.1 in /  34405.1 hPa WNW 3.2 mph /  5.1 km/h 14.5 mph /  23.3 km/h 67 % 0.0 in /  0 mm
22:13 20.7 °F /  -6.3 °C 14.4 °F /  -9.8 °C 1016.5 in /  34418.7 hPa WNW 6.4 mph /  10.3 km/h 14.5 mph /  23.3 km/h 67 % 0.0 in /  0 mm
22:22 20.6 °F /  -6.3 °C 14.3 °F /  -9.8 °C 1016.1 in /  34405.1 hPa NNW 8.0 mph /  12.9 km/h 14.5 mph /  23.3 km/h 67 % 0.0 in /  0 mm
22:32 20.4 °F /  -6.4 °C 14.1 °F /  -9.9 °C 1016.5 in /  34418.7 hPa Calm   12.9 mph /  20.8 km/h 67 % 0.0 in /  0 mm
22:42 20.3 °F /  -6.5 °C 14.2 °F /  -9.9 °C 1016.5 in /  34418.7 hPa North 1.6 mph /  2.6 km/h 14.5 mph /  23.3 km/h 68 % 0.0 in /  0 mm
22:47 20.3 °F /  -6.5 °C 14.2 °F /  -9.9 °C 1016.5 in /  34418.7 hPa North 1.6 mph /  2.6 km/h 14.5 mph /  23.3 km/h 68 % 0.0 in /  0 mm
22:52 20.2 °F /  -6.6 °C 14.3 °F /  -9.8 °C 1016.8 in /  34428.8 hPa NNW 1.6 mph /  2.6 km/h 12.9 mph /  20.8 km/h 69 % 0.0 in /  0 mm
22:57 20.2 °F /  -6.6 °C 14.3 °F /  -9.8 °C 1016.8 in /  34428.8 hPa WNW 3.2 mph /  5.1 km/h 8.0 mph /  12.9 km/h 69 % 0.0 in /  0 mm
23:02 20.2 °F /  -6.6 °C 14.3 °F /  -9.8 °C 1016.8 in /  34428.8 hPa WNW 1.6 mph /  2.6 km/h 8.0 mph /  12.9 km/h 69 % 0.0 in /  0 mm
23:12 20.0 °F /  -6.7 °C 14.4 °F /  -9.8 °C 1016.8 in /  34428.8 hPa West 1.6 mph /  2.6 km/h 6.4 mph /  10.3 km/h 70 % 0.0 in /  0 mm
23:17 20.0 °F /  -6.7 °C 14.6 °F /  -9.7 °C 1017.2 in /  34442.4 hPa Calm   6.4 mph /  10.3 km/h 71 % 0.0 in /  0 mm
23:22 19.9 °F /  -6.7 °C 14.5 °F /  -9.7 °C 1016.8 in /  34428.8 hPa Calm   1.6 mph /  2.6 km/h 71 % 0.0 in /  0 mm
23:32 19.8 °F /  -6.8 °C 14.6 °F /  -9.7 °C 1016.8 in /  34428.8 hPa WNW 1.6 mph /  2.6 km/h 1.6 mph /  2.6 km/h 72 % 0.0 in /  0 mm
23:42 19.6 °F /  -6.9 °C 14.4 °F /  -9.8 °C 1016.8 in /  34428.8 hPa Calm   6.4 mph /  10.3 km/h 72 % 0.0 in /  0 mm
23:52 19.4 °F /  -7 °C 14.4 °F /  -9.8 °C 1016.8 in /  34428.8 hPa Calm   3.2 mph /  5.1 km/h 73 % 0.0 in /  0 mm
23:57 19.3 °F /  -7.1 °C 14.3 °F /  -9.8 °C 1016.8 in /  34428.8 hPa Calm   1.6 mph /  2.6 km/h 73 % 0.0 in /  0 mm
Meteo18
Compliments of Weather Underground - 4 mb

Script developed by  Jim McMurry - jmcmurry@mwt.net Adapted for the template by  Wim van der Kuil - Leuven-Template.eu

You find our weather info also at:

European Weather Network

Weather Underground

Equipment we use:

Weather-station
Davis Vue

Weather-program
Meteobridge

Weather-server
Raspberry PI 2 B+

Provider
1 and 1

Davis Vue

Meteobridge

Raspberry PI 2 B+

1 and 1